sensor_id;sensor_type;location;lat;lon;timestamp;pressure;altitude;pressure_sealevel;temperature;humidity
32197;BME280;18697;42.770;23.400;2022-12-28T00:01:58;96674.69;;;8.31;73.17
32197;BME280;18697;42.770;23.400;2022-12-28T00:04:23;96679.16;;;8.24;72.34
32197;BME280;18697;42.770;23.400;2022-12-28T00:06:48;96681.97;;;8.21;72.76
32197;BME280;18697;42.770;23.400;2022-12-28T00:09:14;96678.22;;;8.11;72.25
32197;BME280;18697;42.770;23.400;2022-12-28T00:11:39;96681.91;;;8.05;72.49
32197;BME280;18697;42.770;23.400;2022-12-28T00:14:05;96671.50;;;7.89;72.69
32197;BME280;18697;42.770;23.400;2022-12-28T00:16:37;96682.69;;;7.82;73.20
32197;BME280;18697;42.770;23.400;2022-12-28T00:19:04;96693.31;;;7.83;74.75
32197;BME280;18697;42.770;23.400;2022-12-28T00:21:30;96693.19;;;7.90;75.48
32197;BME280;18697;42.770;23.400;2022-12-28T00:23:56;96697.34;;;8.02;75.48
32197;BME280;18697;42.770;23.400;2022-12-28T00:26:21;96705.84;;;8.15;72.80
32197;BME280;18697;42.770;23.400;2022-12-28T00:28:47;96710.44;;;8.21;72.87
32197;BME280;18697;42.770;23.400;2022-12-28T00:31:12;96710.72;;;8.27;72.92
32197;BME280;18697;42.770;23.400;2022-12-28T00:33:38;96708.69;;;8.31;73.65
32197;BME280;18697;42.770;23.400;2022-12-28T00:36:03;96724.06;;;8.36;72.85
32197;BME280;18697;42.770;23.400;2022-12-28T00:38:29;96715.78;;;8.32;72.63
32197;BME280;18697;42.770;23.400;2022-12-28T00:40:57;96711.28;;;8.18;72.19
32197;BME280;18697;42.770;23.400;2022-12-28T00:43:23;96715.03;;;8.08;71.71
32197;BME280;18697;42.770;23.400;2022-12-28T00:45:48;96713.97;;;8.02;72.17
32197;BME280;18697;42.770;23.400;2022-12-28T00:48:13;96717.88;;;8.05;74.10
32197;BME280;18697;42.770;23.400;2022-12-28T00:50:39;96711.56;;;8.04;74.25
32197;BME280;18697;42.770;23.400;2022-12-28T00:53:04;96709.44;;;8.12;73.15
32197;BME280;18697;42.770;23.400;2022-12-28T00:55:29;96704.63;;;8.16;73.39
32197;BME280;18697;42.770;23.400;2022-12-28T00:57:59;96709.66;;;8.21;73.46
32197;BME280;18697;42.770;23.400;2022-12-28T01:00:24;96718.38;;;8.19;72.70
32197;BME280;18697;42.770;23.400;2022-12-28T01:02:50;96721.50;;;8.21;72.45
32197;BME280;18697;42.770;23.400;2022-12-28T01:05:16;96719.88;;;8.24;70.64
32197;BME280;18697;42.770;23.400;2022-12-28T01:07:41;96718.31;;;8.23;70.73
32197;BME280;18697;42.770;23.400;2022-12-28T01:10:06;96717.75;;;8.12;71.35
32197;BME280;18697;42.770;23.400;2022-12-28T01:12:32;96716.53;;;8.13;71.86
32197;BME280;18697;42.770;23.400;2022-12-28T01:14:57;96720.50;;;8.12;70.99
32197;BME280;18697;42.770;23.400;2022-12-28T01:17:22;96709.88;;;8.10;71.86
32197;BME280;18697;42.770;23.400;2022-12-28T01:19:48;96705.72;;;7.99;71.90
32197;BME280;18697;42.770;23.400;2022-12-28T01:22:13;96705.59;;;7.82;70.75
32197;BME280;18697;42.770;23.400;2022-12-28T01:24:38;96704.84;;;7.78;72.41
32197;BME280;18697;42.770;23.400;2022-12-28T01:27:03;96701.19;;;7.85;72.45
32197;BME280;18697;42.770;23.400;2022-12-28T01:29:29;96711.31;;;7.95;71.51
32197;BME280;18697;42.770;23.400;2022-12-28T01:31:54;96698.50;;;7.81;72.73
32197;BME280;18697;42.770;23.400;2022-12-28T01:34:19;96700.41;;;7.84;72.42
32197;BME280;18697;42.770;23.400;2022-12-28T01:36:44;96699.31;;;7.78;73.60
32197;BME280;18697;42.770;23.400;2022-12-28T01:39:10;96703.72;;;7.76;72.56
32197;BME280;18697;42.770;23.400;2022-12-28T01:41:36;96710.38;;;7.78;72.85
32197;BME280;18697;42.770;23.400;2022-12-28T01:49:02;96703.09;;;7.65;74.24
32197;BME280;18697;42.770;23.400;2022-12-28T01:51:30;96696.38;;;7.66;73.82
32197;BME280;18697;42.770;23.400;2022-12-28T01:53:58;96702.63;;;7.70;72.76
32197;BME280;18697;42.770;23.400;2022-12-28T01:56:25;96693.13;;;7.71;71.83
32197;BME280;18697;42.770;23.400;2022-12-28T01:58:51;96693.06;;;7.74;71.87
32197;BME280;18697;42.770;23.400;2022-12-28T02:01:16;96687.44;;;7.81;73.19
32197;BME280;18697;42.770;23.400;2022-12-28T02:03:42;96685.91;;;7.77;72.10
32197;BME280;18697;42.770;23.400;2022-12-28T02:06:08;96685.25;;;7.69;72.51
32197;BME280;18697;42.770;23.400;2022-12-28T02:10:59;96688.19;;;7.58;72.93
32197;BME280;18697;42.770;23.400;2022-12-28T02:13:25;96687.41;;;7.58;73.32
32197;BME280;18697;42.770;23.400;2022-12-28T02:15:50;96690.84;;;7.66;72.91
32197;BME280;18697;42.770;23.400;2022-12-28T02:18:16;96677.72;;;7.70;72.75
32197;BME280;18697;42.770;23.400;2022-12-28T02:23:26;96670.44;;;7.56;72.47
32197;BME280;18697;42.770;23.400;2022-12-28T02:28:54;96672.31;;;7.39;72.95
32197;BME280;18697;42.770;23.400;2022-12-28T02:31:30;96674.66;;;7.41;72.77
32197;BME280;18697;42.770;23.400;2022-12-28T02:36:27;96669.91;;;7.41;74.09
32197;BME280;18697;42.770;23.400;2022-12-28T02:39:02;96660.84;;;7.41;73.10
32197;BME280;18697;42.770;23.400;2022-12-28T02:41:28;96662.88;;;7.37;73.54
32197;BME280;18697;42.770;23.400;2022-12-28T02:43:54;96665.91;;;7.19;73.00
32197;BME280;18697;42.770;23.400;2022-12-28T02:46:24;96676.06;;;6.68;74.52
32197;BME280;18697;42.770;23.400;2022-12-28T02:49:25;96667.78;;;6.68;75.54
32197;BME280;18697;42.770;23.400;2022-12-28T02:58:18;96680.31;;;6.73;75.75
32197;BME280;18697;42.770;23.400;2022-12-28T03:03:34;96670.25;;;6.89;77.24
32197;BME280;18697;42.770;23.400;2022-12-28T03:12:10;96661.31;;;7.09;79.31
32197;BME280;18697;42.770;23.400;2022-12-28T03:14:41;96670.47;;;7.29;79.45
32197;BME280;18697;42.770;23.400;2022-12-28T03:17:08;96663.66;;;7.37;78.10
32197;BME280;18697;42.770;23.400;2022-12-28T03:19:56;96665.28;;;7.35;77.48
32197;BME280;18697;42.770;23.400;2022-12-28T03:22:42;96665.16;;;7.42;78.61
32197;BME280;18697;42.770;23.400;2022-12-28T03:25:26;96663.72;;;7.57;78.35
32197;BME280;18697;42.770;23.400;2022-12-28T03:28:13;96672.69;;;7.65;77.19
32197;BME280;18697;42.770;23.400;2022-12-28T03:30:59;96666.44;;;7.61;76.00
32197;BME280;18697;42.770;23.400;2022-12-28T03:33:37;96668.66;;;7.69;76.28
32197;BME280;18697;42.770;23.400;2022-12-28T03:36:25;96672.56;;;7.72;76.44
32197;BME280;18697;42.770;23.400;2022-12-28T03:39:09;96674.84;;;7.77;76.38
32197;BME280;18697;42.770;23.400;2022-12-28T03:41:37;96676.41;;;7.78;76.33
32197;BME280;18697;42.770;23.400;2022-12-28T03:44:09;96667.94;;;7.88;75.99
32197;BME280;18697;42.770;23.400;2022-12-28T03:46:43;96665.41;;;7.98;75.86
32197;BME280;18697;42.770;23.400;2022-12-28T03:49:10;96668.31;;;7.90;74.77
32197;BME280;18697;42.770;23.400;2022-12-28T03:51:36;96669.09;;;7.91;74.43
32197;BME280;18697;42.770;23.400;2022-12-28T03:54:01;96659.63;;;7.65;74.76
32197;BME280;18697;42.770;23.400;2022-12-28T03:56:27;96653.31;;;7.65;74.81
32197;BME280;18697;42.770;23.400;2022-12-28T03:58:53;96651.88;;;7.56;74.83
32197;BME280;18697;42.770;23.400;2022-12-28T04:01:18;96645.50;;;7.36;76.08
32197;BME280;18697;42.770;23.400;2022-12-28T04:03:43;96650.19;;;7.39;76.95
32197;BME280;18697;42.770;23.400;2022-12-28T04:06:11;96651.25;;;7.45;77.75
32197;BME280;18697;42.770;23.400;2022-12-28T04:08:37;96654.75;;;7.49;76.91
32197;BME280;18697;42.770;23.400;2022-12-28T04:11:02;96658.13;;;7.61;76.83
32197;BME280;18697;42.770;23.400;2022-12-28T04:13:31;96667.88;;;7.69;76.36
32197;BME280;18697;42.770;23.400;2022-12-28T04:18:21;96666.25;;;7.21;76.19
32197;BME280;18697;42.770;23.400;2022-12-28T04:20:47;96659.38;;;7.06;77.25
32197;BME280;18697;42.770;23.400;2022-12-28T04:23:12;96651.66;;;6.63;79.39
32197;BME280;18697;42.770;23.400;2022-12-28T04:25:37;96657.31;;;6.52;81.50
32197;BME280;18697;42.770;23.400;2022-12-28T04:28:03;96675.47;;;6.50;82.02
32197;BME280;18697;42.770;23.400;2022-12-28T04:30:28;96679.09;;;6.43;82.74
32197;BME280;18697;42.770;23.400;2022-12-28T04:32:53;96694.31;;;6.58;81.90
32197;BME280;18697;42.770;23.400;2022-12-28T04:35:19;96712.66;;;6.72;81.61
32197;BME280;18697;42.770;23.400;2022-12-28T04:37:44;96715.28;;;6.83;81.14
32197;BME280;18697;42.770;23.400;2022-12-28T04:40:09;96706.97;;;6.86;79.58
32197;BME280;18697;42.770;23.400;2022-12-28T04:42:35;96704.13;;;6.93;79.66
32197;BME280;18697;42.770;23.400;2022-12-28T04:45:00;96705.97;;;7.04;81.22
32197;BME280;18697;42.770;23.400;2022-12-28T04:47:25;96706.66;;;7.11;79.98
32197;BME280;18697;42.770;23.400;2022-12-28T04:49:50;96709.28;;;7.22;80.75
32197;BME280;18697;42.770;23.400;2022-12-28T04:52:16;96718.19;;;7.33;79.34
32197;BME280;18697;42.770;23.400;2022-12-28T04:54:41;96713.69;;;7.43;79.53
32197;BME280;18697;42.770;23.400;2022-12-28T04:57:06;96723.13;;;7.45;78.57
32197;BME280;18697;42.770;23.400;2022-12-28T04:59:31;96723.81;;;7.53;77.44
32197;BME280;18697;42.770;23.400;2022-12-28T05:01:57;96717.81;;;7.58;76.78
32197;BME280;18697;42.770;23.400;2022-12-28T05:04:22;96718.97;;;7.61;76.90
32197;BME280;18697;42.770;23.400;2022-12-28T05:06:47;96716.19;;;7.61;75.91
32197;BME280;18697;42.770;23.400;2022-12-28T05:09:12;96708.38;;;7.55;75.79
32197;BME280;18697;42.770;23.400;2022-12-28T05:11:38;96701.38;;;7.47;75.96
32197;BME280;18697;42.770;23.400;2022-12-28T05:14:03;96706.00;;;7.31;76.52
32197;BME280;18697;42.770;23.400;2022-12-28T05:16:28;96695.44;;;7.22;77.88
32197;BME280;18697;42.770;23.400;2022-12-28T05:18:55;96707.81;;;7.14;78.20
32197;BME280;18697;42.770;23.400;2022-12-28T05:21:21;96699.66;;;7.03;78.82
32197;BME280;18697;42.770;23.400;2022-12-28T05:23:47;96696.19;;;6.96;79.39
32197;BME280;18697;42.770;23.400;2022-12-28T05:26:14;96693.44;;;6.96;80.84
32197;BME280;18697;42.770;23.400;2022-12-28T05:28:39;96712.97;;;7.12;81.35
32197;BME280;18697;42.770;23.400;2022-12-28T05:31:06;96707.97;;;7.30;81.49
32197;BME280;18697;42.770;23.400;2022-12-28T05:33:32;96711.00;;;7.39;81.91
32197;BME280;18697;42.770;23.400;2022-12-28T05:36:01;96701.44;;;7.44;80.28
32197;BME280;18697;42.770;23.400;2022-12-28T05:38:27;96704.94;;;7.48;79.01
32197;BME280;18697;42.770;23.400;2022-12-28T05:40:52;96706.06;;;7.50;79.36
32197;BME280;18697;42.770;23.400;2022-12-28T05:43:17;96709.22;;;7.52;79.59
32197;BME280;18697;42.770;23.400;2022-12-28T05:45:43;96707.94;;;7.57;79.34
32197;BME280;18697;42.770;23.400;2022-12-28T05:48:08;96708.25;;;7.63;79.55
32197;BME280;18697;42.770;23.400;2022-12-28T05:50:33;96715.25;;;7.71;79.68
32197;BME280;18697;42.770;23.400;2022-12-28T05:52:59;96713.94;;;7.79;79.38
32197;BME280;18697;42.770;23.400;2022-12-28T05:55:24;96711.78;;;7.90;79.97
32197;BME280;18697;42.770;23.400;2022-12-28T05:57:49;96723.75;;;7.83;77.29
32197;BME280;18697;42.770;23.400;2022-12-28T06:00:15;96725.28;;;6.73;80.31
32197;BME280;18697;42.770;23.400;2022-12-28T06:02:40;96742.25;;;6.38;82.93
32197;BME280;18697;42.770;23.400;2022-12-28T06:05:05;96741.75;;;6.80;82.81
32197;BME280;18697;42.770;23.400;2022-12-28T06:07:31;96736.84;;;6.23;83.80
32197;BME280;18697;42.770;23.400;2022-12-28T06:09:56;96731.94;;;6.01;85.58
32197;BME280;18697;42.770;23.400;2022-12-28T06:12:21;96735.97;;;6.34;84.91
32197;BME280;18697;42.770;23.400;2022-12-28T06:14:47;96748.50;;;6.42;84.17
32197;BME280;18697;42.770;23.400;2022-12-28T06:17:12;96746.06;;;6.51;83.12
32197;BME280;18697;42.770;23.400;2022-12-28T06:19:37;96740.97;;;6.46;83.38
32197;BME280;18697;42.770;23.400;2022-12-28T06:22:02;96739.78;;;6.47;83.35
32197;BME280;18697;42.770;23.400;2022-12-28T06:24:28;96748.56;;;6.35;84.05
32197;BME280;18697;42.770;23.400;2022-12-28T06:26:53;96743.88;;;6.32;85.34
32197;BME280;18697;42.770;23.400;2022-12-28T06:29:18;96741.53;;;6.30;85.64
32197;BME280;18697;42.770;23.400;2022-12-28T06:31:44;96742.34;;;6.27;86.92
32197;BME280;18697;42.770;23.400;2022-12-28T06:34:11;96743.75;;;6.46;87.38
32197;BME280;18697;42.770;23.400;2022-12-28T06:36:37;96731.72;;;6.63;86.98
32197;BME280;18697;42.770;23.400;2022-12-28T06:39:04;96738.53;;;6.85;86.75
32197;BME280;18697;42.770;23.400;2022-12-28T06:41:29;96740.63;;;7.08;86.37
32197;BME280;18697;42.770;23.400;2022-12-28T06:43:55;96761.72;;;7.25;84.55
32197;BME280;18697;42.770;23.400;2022-12-28T06:46:21;96761.84;;;7.45;84.09
32197;BME280;18697;42.770;23.400;2022-12-28T06:48:47;96766.38;;;7.59;83.34
32197;BME280;18697;42.770;23.400;2022-12-28T06:51:13;96770.94;;;7.73;82.08
32197;BME280;18697;42.770;23.400;2022-12-28T06:53:39;96761.69;;;7.83;80.70
32197;BME280;18697;42.770;23.400;2022-12-28T06:56:06;96772.06;;;7.75;78.92
32197;BME280;18697;42.770;23.400;2022-12-28T06:58:31;96768.16;;;7.73;78.99
32197;BME280;18697;42.770;23.400;2022-12-28T07:01:03;96770.03;;;7.79;79.53
32197;BME280;18697;42.770;23.400;2022-12-28T07:03:29;96763.47;;;7.70;78.45
32197;BME280;18697;42.770;23.400;2022-12-28T07:05:54;96773.00;;;7.65;79.55
32197;BME280;18697;42.770;23.400;2022-12-28T07:08:23;96771.50;;;7.61;79.24
32197;BME280;18697;42.770;23.400;2022-12-28T07:10:48;96763.63;;;7.59;80.24
32197;BME280;18697;42.770;23.400;2022-12-28T07:13:13;96763.44;;;7.43;80.03
32197;BME280;18697;42.770;23.400;2022-12-28T07:15:39;96760.13;;;7.28;80.79
32197;BME280;18697;42.770;23.400;2022-12-28T07:18:04;96761.31;;;7.27;81.63
32197;BME280;18697;42.770;23.400;2022-12-28T07:20:29;96769.59;;;7.27;81.38
32197;BME280;18697;42.770;23.400;2022-12-28T07:22:54;96765.69;;;7.24;81.17
32197;BME280;18697;42.770;23.400;2022-12-28T07:25:20;96768.44;;;7.24;82.10
32197;BME280;18697;42.770;23.400;2022-12-28T07:27:45;96758.63;;;7.20;82.21
32197;BME280;18697;42.770;23.400;2022-12-28T07:30:11;96768.81;;;7.27;82.76
32197;BME280;18697;42.770;23.400;2022-12-28T07:32:36;96773.06;;;7.35;82.96
32197;BME280;18697;42.770;23.400;2022-12-28T07:35:03;96772.44;;;7.50;82.96
32197;BME280;18697;42.770;23.400;2022-12-28T07:37:29;96775.34;;;7.67;82.44
32197;BME280;18697;42.770;23.400;2022-12-28T07:39:54;96766.50;;;7.79;81.57
32197;BME280;18697;42.770;23.400;2022-12-28T07:42:19;96772.16;;;7.95;80.94
32197;BME280;18697;42.770;23.400;2022-12-28T07:44:45;96773.16;;;8.08;79.42
32197;BME280;18697;42.770;23.400;2022-12-28T07:47:11;96772.88;;;8.22;79.19
32197;BME280;18697;42.770;23.400;2022-12-28T07:49:37;96772.63;;;8.40;78.49
32197;BME280;18697;42.770;23.400;2022-12-28T07:52:02;96762.50;;;8.53;77.69
32197;BME280;18697;42.770;23.400;2022-12-28T07:54:27;96766.66;;;8.42;77.56
32197;BME280;18697;42.770;23.400;2022-12-28T07:56:52;96768.53;;;8.48;77.50
32197;BME280;18697;42.770;23.400;2022-12-28T07:59:18;96776.28;;;8.10;78.69
32197;BME280;18697;42.770;23.400;2022-12-28T08:01:43;96779.06;;;8.34;78.08
32197;BME280;18697;42.770;23.400;2022-12-28T08:04:10;96779.66;;;8.45;78.65
32197;BME280;18697;42.770;23.400;2022-12-28T08:06:37;96778.75;;;8.51;79.17
32197;BME280;18697;42.770;23.400;2022-12-28T08:09:03;96779.41;;;8.59;79.29
32197;BME280;18697;42.770;23.400;2022-12-28T08:11:30;96777.22;;;8.70;79.15
32197;BME280;18697;42.770;23.400;2022-12-28T08:13:55;96777.03;;;8.81;77.47
32197;BME280;18697;42.770;23.400;2022-12-28T08:16:22;96776.38;;;8.93;77.69
32197;BME280;18697;42.770;23.400;2022-12-28T08:18:48;96779.44;;;8.99;77.24
32197;BME280;18697;42.770;23.400;2022-12-28T08:21:18;96788.09;;;9.01;76.87
32197;BME280;18697;42.770;23.400;2022-12-28T08:23:44;96788.19;;;8.97;78.12
32197;BME280;18697;42.770;23.400;2022-12-28T08:26:14;96777.72;;;9.05;78.24
32197;BME280;18697;42.770;23.400;2022-12-28T08:28:40;96793.44;;;9.11;78.02
32197;BME280;18697;42.770;23.400;2022-12-28T08:31:09;96794.16;;;9.15;77.79
32197;BME280;18697;42.770;23.400;2022-12-28T08:33:35;96778.31;;;9.16;75.32
32197;BME280;18697;42.770;23.400;2022-12-28T08:36:01;96781.38;;;9.21;75.09
32197;BME280;18697;42.770;23.400;2022-12-28T08:38:26;96778.00;;;9.30;74.78
32197;BME280;18697;42.770;23.400;2022-12-28T08:40:58;96783.41;;;9.37;74.81
32197;BME280;18697;42.770;23.400;2022-12-28T08:43:25;96769.19;;;9.35;73.73
32197;BME280;18697;42.770;23.400;2022-12-28T08:46:04;96768.50;;;9.31;73.50
32197;BME280;18697;42.770;23.400;2022-12-28T08:48:30;96765.28;;;9.33;72.68
32197;BME280;18697;42.770;23.400;2022-12-28T08:50:59;96770.34;;;9.38;73.42
32197;BME280;18697;42.770;23.400;2022-12-28T08:53:24;96780.56;;;9.41;73.29
32197;BME280;18697;42.770;23.400;2022-12-28T08:55:50;96783.34;;;9.41;71.98
32197;BME280;18697;42.770;23.400;2022-12-28T08:58:15;96780.22;;;9.39;72.13
32197;BME280;18697;42.770;23.400;2022-12-28T09:00:41;96769.91;;;9.39;72.05
32197;BME280;18697;42.770;23.400;2022-12-28T09:03:06;96779.44;;;9.38;72.28
32197;BME280;18697;42.770;23.400;2022-12-28T09:05:31;96770.34;;;9.38;72.13
32197;BME280;18697;42.770;23.400;2022-12-28T09:07:57;96770.34;;;9.38;71.79
32197;BME280;18697;42.770;23.400;2022-12-28T09:10:22;96759.59;;;9.40;71.54
32197;BME280;18697;42.770;23.400;2022-12-28T09:12:47;96768.00;;;9.36;70.20
32197;BME280;18697;42.770;23.400;2022-12-28T09:15:12;96757.75;;;9.33;70.13
32197;BME280;18697;42.770;23.400;2022-12-28T09:17:38;96747.53;;;9.30;70.91
32197;BME280;18697;42.770;23.400;2022-12-28T09:20:03;96740.69;;;9.35;72.29
32197;BME280;18697;42.770;23.400;2022-12-28T09:22:29;96734.91;;;9.45;71.74
32197;BME280;18697;42.770;23.400;2022-12-28T09:24:54;96730.16;;;9.46;71.07
32197;BME280;18697;42.770;23.400;2022-12-28T09:27:20;96725.81;;;9.45;69.92
32197;BME280;18697;42.770;23.400;2022-12-28T09:29:45;96733.06;;;9.39;69.36
32197;BME280;18697;42.770;23.400;2022-12-28T09:32:10;96733.50;;;9.37;68.98
32197;BME280;18697;42.770;23.400;2022-12-28T09:34:35;96726.56;;;9.29;68.83
32197;BME280;18697;42.770;23.400;2022-12-28T09:37:00;96732.81;;;9.33;70.58
32197;BME280;18697;42.770;23.400;2022-12-28T09:39:26;96730.03;;;9.33;69.94
32197;BME280;18697;42.770;23.400;2022-12-28T09:42:02;96724.75;;;9.39;70.31
32197;BME280;18697;42.770;23.400;2022-12-28T09:54:48;96705.31;;;9.91;70.98
32197;BME280;18697;42.770;23.400;2022-12-28T09:57:15;96700.88;;;9.94;71.00
32197;BME280;18697;42.770;23.400;2022-12-28T09:59:41;96704.78;;;9.96;70.84
32197;BME280;18697;42.770;23.400;2022-12-28T10:02:16;96702.00;;;9.96;69.92
32197;BME280;18697;42.770;23.400;2022-12-28T10:04:42;96696.88;;;9.95;70.29
32197;BME280;18697;42.770;23.400;2022-12-28T10:07:08;96692.97;;;9.92;69.54
32197;BME280;18697;42.770;23.400;2022-12-28T10:09:35;96694.63;;;9.89;69.11
32197;BME280;18697;42.770;23.400;2022-12-28T10:12:00;96693.75;;;9.93;70.57
32197;BME280;18697;42.770;23.400;2022-12-28T10:14:36;96695.75;;;9.92;70.32
32197;BME280;18697;42.770;23.400;2022-12-28T10:17:02;96689.00;;;9.93;70.39
32197;BME280;18697;42.770;23.400;2022-12-28T10:19:29;96684.66;;;9.92;70.44
32197;BME280;18697;42.770;23.400;2022-12-28T10:24:22;96675.97;;;10.06;71.24
32197;BME280;18697;42.770;23.400;2022-12-28T10:26:48;96681.88;;;10.08;70.98
32197;BME280;18697;42.770;23.400;2022-12-28T10:29:22;96675.63;;;10.04;69.71
32197;BME280;18697;42.770;23.400;2022-12-28T10:32:07;96668.63;;;10.00;70.30
32197;BME280;18697;42.770;23.400;2022-12-28T10:34:52;96671.81;;;9.98;70.66
32197;BME280;18697;42.770;23.400;2022-12-28T10:37:17;96676.41;;;10.05;71.73
32197;BME280;18697;42.770;23.400;2022-12-28T10:39:53;96684.31;;;10.06;71.40
32197;BME280;18697;42.770;23.400;2022-12-28T10:42:22;96677.88;;;10.09;69.81
32197;BME280;18697;42.770;23.400;2022-12-28T10:44:48;96674.31;;;10.09;69.51
32197;BME280;18697;42.770;23.400;2022-12-28T10:47:25;96676.66;;;10.10;70.07
32197;BME280;18697;42.770;23.400;2022-12-28T10:49:52;96675.53;;;10.08;70.37
32197;BME280;18697;42.770;23.400;2022-12-28T10:52:18;96675.38;;;10.15;70.46
32197;BME280;18697;42.770;23.400;2022-12-28T10:54:44;96678.69;;;9.94;69.50
32197;BME280;18697;42.770;23.400;2022-12-28T11:00:12;96677.81;;;9.97;69.88
32197;BME280;18697;42.770;23.400;2022-12-28T11:02:37;96676.31;;;10.08;70.33
32197;BME280;18697;42.770;23.400;2022-12-28T11:05:03;96678.56;;;10.13;69.80
32197;BME280;18697;42.770;23.400;2022-12-28T11:07:30;96680.66;;;10.09;69.90
32197;BME280;18697;42.770;23.400;2022-12-28T11:12:41;96683.25;;;10.16;68.81
32197;BME280;18697;42.770;23.400;2022-12-28T11:15:08;96693.09;;;10.21;68.89
32197;BME280;18697;42.770;23.400;2022-12-28T11:17:37;96684.38;;;10.19;68.26
32197;BME280;18697;42.770;23.400;2022-12-28T11:20:05;96691.44;;;10.24;68.48
32197;BME280;18697;42.770;23.400;2022-12-28T11:22:32;96699.66;;;10.27;68.90
32197;BME280;18697;42.770;23.400;2022-12-28T11:24:58;96695.25;;;10.30;69.54
32197;BME280;18697;42.770;23.400;2022-12-28T11:27:23;96694.81;;;10.31;69.58
32197;BME280;18697;42.770;23.400;2022-12-28T11:29:50;96703.47;;;10.33;69.00
32197;BME280;18697;42.770;23.400;2022-12-28T11:32:23;96704.59;;;10.36;69.02
32197;BME280;18697;42.770;23.400;2022-12-28T11:34:50;96698.63;;;10.37;69.41
32197;BME280;18697;42.770;23.400;2022-12-28T11:37:16;96699.84;;;10.36;69.26
32197;BME280;18697;42.770;23.400;2022-12-28T11:39:45;96701.91;;;10.32;69.67
32197;BME280;18697;42.770;23.400;2022-12-28T11:42:13;96697.25;;;10.29;70.06
32197;BME280;18697;42.770;23.400;2022-12-28T11:44:57;96689.44;;;10.24;68.35
32197;BME280;18697;42.770;23.400;2022-12-28T11:47:31;96692.09;;;10.11;68.53
32197;BME280;18697;42.770;23.400;2022-12-28T11:52:45;96681.53;;;10.23;69.60
32197;BME280;18697;42.770;23.400;2022-12-28T11:57:52;96672.94;;;10.01;68.77
32197;BME280;18697;42.770;23.400;2022-12-28T12:07:58;96656.16;;;9.59;72.06
32197;BME280;18697;42.770;23.400;2022-12-28T12:10:28;96648.09;;;9.65;73.12
32197;BME280;18697;42.770;23.400;2022-12-28T12:12:53;96652.09;;;9.64;73.24
32197;BME280;18697;42.770;23.400;2022-12-28T12:15:19;96645.47;;;9.74;72.12
32197;BME280;18697;42.770;23.400;2022-12-28T12:17:47;96649.63;;;9.66;66.75
32197;BME280;18697;42.770;23.400;2022-12-28T12:20:16;96639.94;;;9.58;68.20
32197;BME280;18697;42.770;23.400;2022-12-28T12:22:47;96644.09;;;9.66;67.68
32197;BME280;18697;42.770;23.400;2022-12-28T12:25:17;96629.44;;;9.49;64.65
32197;BME280;18697;42.770;23.400;2022-12-28T12:27:45;96630.22;;;9.49;66.25
32197;BME280;18697;42.770;23.400;2022-12-28T12:30:13;96632.50;;;9.54;65.77
32197;BME280;18697;42.770;23.400;2022-12-28T12:32:41;96632.56;;;9.51;65.21
32197;BME280;18697;42.770;23.400;2022-12-28T12:35:10;96623.28;;;9.41;64.43
32197;BME280;18697;42.770;23.400;2022-12-28T12:55:42;96619.66;;;9.61;65.65
32197;BME280;18697;42.770;23.400;2022-12-28T12:58:18;96623.44;;;9.67;63.75
32197;BME280;18697;42.770;23.400;2022-12-28T13:05:50;96616.97;;;9.57;64.77
32197;BME280;18697;42.770;23.400;2022-12-28T13:08:21;96612.47;;;9.63;66.53
32197;BME280;18697;42.770;23.400;2022-12-28T13:10:47;96617.28;;;9.75;66.92
32197;BME280;18697;42.770;23.400;2022-12-28T13:13:16;96603.31;;;9.79;64.97
32197;BME280;18697;42.770;23.400;2022-12-28T13:15:42;96609.03;;;9.88;65.58
32197;BME280;18697;42.770;23.400;2022-12-28T13:18:15;96601.22;;;9.99;65.68
32197;BME280;18697;42.770;23.400;2022-12-28T13:20:50;96595.47;;;10.06;65.00
32197;BME280;18697;42.770;23.400;2022-12-28T13:23:16;96598.94;;;10.10;63.88
32197;BME280;18697;42.770;23.400;2022-12-28T13:25:43;96603.19;;;10.15;63.65
32197;BME280;18697;42.770;23.400;2022-12-28T13:28:16;96601.81;;;10.23;64.54
32197;BME280;18697;42.770;23.400;2022-12-28T13:30:52;96600.59;;;10.24;63.92
32197;BME280;18697;42.770;23.400;2022-12-28T13:33:19;96596.16;;;10.27;65.63
32197;BME280;18697;42.770;23.400;2022-12-28T13:35:45;96598.59;;;10.25;65.05
32197;BME280;18697;42.770;23.400;2022-12-28T13:38:17;96593.28;;;10.30;65.96
32197;BME280;18697;42.770;23.400;2022-12-28T13:40:52;96602.06;;;10.29;65.07
32197;BME280;18697;42.770;23.400;2022-12-28T13:45:45;96594.16;;;10.27;64.39
32197;BME280;18697;42.770;23.400;2022-12-28T13:48:14;96590.59;;;10.27;64.96
32197;BME280;18697;42.770;23.400;2022-12-28T13:50:40;96593.38;;;10.27;64.79
32197;BME280;18697;42.770;23.400;2022-12-28T13:53:07;96583.66;;;10.18;64.53
32197;BME280;18697;42.770;23.400;2022-12-28T13:55:45;96584.03;;;10.20;65.24
32197;BME280;18697;42.770;23.400;2022-12-28T13:58:15;96590.34;;;10.21;65.13
32197;BME280;18697;42.770;23.400;2022-12-28T14:00:45;96586.38;;;10.22;65.27
32197;BME280;18697;42.770;23.400;2022-12-28T14:03:11;96594.25;;;10.24;65.42
32197;BME280;18697;42.770;23.400;2022-12-28T14:05:36;96587.94;;;10.23;65.56
32197;BME280;18697;42.770;23.400;2022-12-28T14:08:05;96591.13;;;10.22;65.44
32197;BME280;18697;42.770;23.400;2022-12-28T14:10:31;96583.66;;;10.18;65.86
32197;BME280;18697;42.770;23.400;2022-12-28T14:12:56;96582.09;;;10.17;66.43
32197;BME280;18697;42.770;23.400;2022-12-28T14:15:22;96586.38;;;10.22;65.58
32197;BME280;18697;42.770;23.400;2022-12-28T14:17:48;96587.81;;;10.27;65.77
32197;BME280;18697;42.770;23.400;2022-12-28T14:20:14;96590.06;;;10.32;66.84
32197;BME280;18697;42.770;23.400;2022-12-28T14:22:39;96584.50;;;10.32;66.46
32197;BME280;18697;42.770;23.400;2022-12-28T14:25:06;96588.84;;;10.33;65.37
32197;BME280;18697;42.770;23.400;2022-12-28T14:27:32;96592.50;;;10.30;66.60
32197;BME280;18697;42.770;23.400;2022-12-28T14:29:59;96589.03;;;10.26;67.53